Terminal Aerodrome Forecast
Issued by NWS

Home | Current Version | Previous Version | Text Only | Print | Product List | Glossary On
Versions: 1 2 3 4 5 6 7 8 9 10 11 12 13 14 15
000
FTUS45 KTFX 210500
TAFLWT
TAF
KLWT 210535Z 2106/2206 VRB05KT P6SM FEW100
     FM211800 22015KT P6SM VCSH BKN070
     FM220300 30015G25KT P6SM VCSH BKN090=

USA.gov is the U.S. government's official web portal to all federal, state and local government web resources and services.